sensor_id;sensor_type;location;lat;lon;timestamp;pressure;altitude;pressure_sealevel;temperature
23992;BMP280;12205;50.600;4.608;2023-01-29T00:00:06;101548.38;;;-0.66
23992;BMP280;12205;50.600;4.608;2023-01-29T00:02:38;101551.78;;;-0.65
23992;BMP280;12205;50.600;4.608;2023-01-29T00:05:07;101547.56;;;-0.66
23992;BMP280;12205;50.600;4.608;2023-01-29T00:07:34;101539.91;;;-0.68
23992;BMP280;12205;50.600;4.608;2023-01-29T00:10:01;101535.72;;;-0.69
23992;BMP280;12205;50.600;4.608;2023-01-29T00:12:28;101543.59;;;-0.69
23992;BMP280;12205;50.600;4.608;2023-01-29T00:14:56;101542.78;;;-0.70
23992;BMP280;12205;50.600;4.608;2023-01-29T00:17:24;101548.28;;;-0.71
23992;BMP280;12205;50.600;4.608;2023-01-29T00:19:52;101542.47;;;-0.73
23992;BMP280;12205;50.600;4.608;2023-01-29T00:22:19;101554.56;;;-0.72
23992;BMP280;12205;50.600;4.608;2023-01-29T00:24:46;101555.03;;;-0.75
23992;BMP280;12205;50.600;4.608;2023-01-29T00:27:13;101550.81;;;-0.76
23992;BMP280;12205;50.600;4.608;2023-01-29T00:29:40;101560.44;;;-0.82
23992;BMP280;12205;50.600;4.608;2023-01-29T00:32:08;101555.69;;;-0.85
23992;BMP280;12205;50.600;4.608;2023-01-29T00:34:37;101551.22;;;-0.85
23992;BMP280;12205;50.600;4.608;2023-01-29T00:37:04;101548.81;;;-0.86
23992;BMP280;12205;50.600;4.608;2023-01-29T00:39:33;101560.13;;;-0.86
23992;BMP280;12205;50.600;4.608;2023-01-29T00:42:04;101561.72;;;-0.85
23992;BMP280;12205;50.600;4.608;2023-01-29T00:44:48;101558.06;;;-0.83
23992;BMP280;12205;50.600;4.608;2023-01-29T00:47:25;101552.81;;;-0.83
23992;BMP280;12205;50.600;4.608;2023-01-29T00:50:02;101549.63;;;-0.86
23992;BMP280;12205;50.600;4.608;2023-01-29T00:52:30;101543.56;;;-0.86
23992;BMP280;12205;50.600;4.608;2023-01-29T00:54:58;101545.41;;;-0.87
23992;BMP280;12205;50.600;4.608;2023-01-29T00:57:30;101548.03;;;-0.87
23992;BMP280;12205;50.600;4.608;2023-01-29T00:59:57;101543.81;;;-0.88
23992;BMP280;12205;50.600;4.608;2023-01-29T01:02:26;101543.81;;;-0.88
23992;BMP280;12205;50.600;4.608;2023-01-29T01:05:16;101534.34;;;-0.89
23992;BMP280;12205;50.600;4.608;2023-01-29T01:07:45;101530.69;;;-0.88
23992;BMP280;12205;50.600;4.608;2023-01-29T01:10:16;101528.06;;;-0.88
23992;BMP280;12205;50.600;4.608;2023-01-29T01:12:46;101542.47;;;-0.90
23992;BMP280;12205;50.600;4.608;2023-01-29T01:15:15;101538.03;;;-0.90
23992;BMP280;12205;50.600;4.608;2023-01-29T01:17:42;101539.28;;;-0.92
23992;BMP280;12205;50.600;4.608;2023-01-29T01:20:11;101530.84;;;-0.94
23992;BMP280;12205;50.600;4.608;2023-01-29T01:22:41;101525.75;;;-1.01
23992;BMP280;12205;50.600;4.608;2023-01-29T01:25:09;101519.25;;;-0.98
23992;BMP280;12205;50.600;4.608;2023-01-29T01:27:36;101506.69;;;-0.96
23992;BMP280;12205;50.600;4.608;2023-01-29T01:30:10;101497.94;;;-1.02
23992;BMP280;12205;50.600;4.608;2023-01-29T01:32:39;101503.50;;;-0.98
23992;BMP280;12205;50.600;4.608;2023-01-29T01:35:08;101499.50;;;-1.01
23992;BMP280;12205;50.600;4.608;2023-01-29T01:37:36;101503.19;;;-1.02
23992;BMP280;12205;50.600;4.608;2023-01-29T01:40:09;101497.59;;;-1.06
23992;BMP280;12205;50.600;4.608;2023-01-29T01:42:42;101498.41;;;-1.05
23992;BMP280;12205;50.600;4.608;2023-01-29T01:45:21;101494.75;;;-1.04
23992;BMP280;12205;50.600;4.608;2023-01-29T01:47:51;101494.19;;;-1.06
23992;BMP280;12205;50.600;4.608;2023-01-29T01:50:24;101489.19;;;-1.08
23992;BMP280;12205;50.600;4.608;2023-01-29T01:52:58;101503.34;;;-1.09
23992;BMP280;12205;50.600;4.608;2023-01-29T01:55:30;101499.69;;;-1.08
23992;BMP280;12205;50.600;4.608;2023-01-29T01:58:05;101504.13;;;-1.08
23992;BMP280;12205;50.600;4.608;2023-01-29T02:00:33;101504.94;;;-1.08
23992;BMP280;12205;50.600;4.608;2023-01-29T02:03:03;101509.38;;;-1.08
23992;BMP280;12205;50.600;4.608;2023-01-29T02:05:48;101496.72;;;-1.11
23992;BMP280;12205;50.600;4.608;2023-01-29T02:08:45;101492.22;;;-1.16
23992;BMP280;12205;50.600;4.608;2023-01-29T02:11:36;101497.13;;;-1.20
23992;BMP280;12205;50.600;4.608;2023-01-29T02:14:04;101491.88;;;-1.20
23992;BMP280;12205;50.600;4.608;2023-01-29T02:16:33;101495.03;;;-1.17
23992;BMP280;12205;50.600;4.608;2023-01-29T02:19:11;101501.88;;;-1.16
23992;BMP280;12205;50.600;4.608;2023-01-29T02:22:23;101508.66;;;-1.21
23992;BMP280;12205;50.600;4.608;2023-01-29T02:25:09;101502.84;;;-1.23
23992;BMP280;12205;50.600;4.608;2023-01-29T02:28:13;101510.25;;;-1.20
23992;BMP280;12205;50.600;4.608;2023-01-29T02:30:49;101511.25;;;-1.21
23992;BMP280;12205;50.600;4.608;2023-01-29T02:33:35;101525.41;;;-1.22
23992;BMP280;12205;50.600;4.608;2023-01-29T02:36:19;101524.28;;;-1.26
23992;BMP280;12205;50.600;4.608;2023-01-29T02:39:00;101517.47;;;-1.27
23992;BMP280;12205;50.600;4.608;2023-01-29T02:41:36;101514.38;;;-1.24
23992;BMP280;12205;50.600;4.608;2023-01-29T02:44:16;101530.59;;;-1.27
23992;BMP280;12205;50.600;4.608;2023-01-29T02:46:55;101539.72;;;-1.29
23992;BMP280;12205;50.600;4.608;2023-01-29T02:49:31;101535.25;;;-1.29
23992;BMP280;12205;50.600;4.608;2023-01-29T02:52:05;101541.75;;;-1.31
23992;BMP280;12205;50.600;4.608;2023-01-29T02:54:41;101543.25;;;-1.36
23992;BMP280;12205;50.600;4.608;2023-01-29T02:57:17;101550.31;;;-1.36
23992;BMP280;12205;50.600;4.608;2023-01-29T02:59:51;101549.19;;;-1.40
23992;BMP280;12205;50.600;4.608;2023-01-29T03:02:29;101542.81;;;-1.44
23992;BMP280;12205;50.600;4.608;2023-01-29T03:05:03;101549.66;;;-1.43
23992;BMP280;12205;50.600;4.608;2023-01-29T03:07:40;101546.03;;;-1.42
23992;BMP280;12205;50.600;4.608;2023-01-29T03:10:22;101542.34;;;-1.41
23992;BMP280;12205;50.600;4.608;2023-01-29T03:12:57;101537.34;;;-1.43
23992;BMP280;12205;50.600;4.608;2023-01-29T03:15:34;101541.22;;;-1.45
23992;BMP280;12205;50.600;4.608;2023-01-29T03:18:32;101539.19;;;-1.43
23992;BMP280;12205;50.600;4.608;2023-01-29T03:21:13;101540.19;;;-1.44
23992;BMP280;12205;50.600;4.608;2023-01-29T03:24:03;101524.22;;;-1.43
23992;BMP280;12205;50.600;4.608;2023-01-29T03:26:51;101522.97;;;-1.40
23992;BMP280;12205;50.600;4.608;2023-01-29T03:29:43;101532.97;;;-1.37
23992;BMP280;12205;50.600;4.608;2023-01-29T03:32:49;101535.59;;;-1.37
23992;BMP280;12205;50.600;4.608;2023-01-29T03:35:22;101530.84;;;-1.40
23992;BMP280;12205;50.600;4.608;2023-01-29T03:38:01;101531.84;;;-1.41
23992;BMP280;12205;50.600;4.608;2023-01-29T03:40:36;101533.47;;;-1.40
23992;BMP280;12205;50.600;4.608;2023-01-29T03:43:12;101530.84;;;-1.40
23992;BMP280;12205;50.600;4.608;2023-01-29T03:45:59;101543.41;;;-1.42
23992;BMP280;12205;50.600;4.608;2023-01-29T03:48:35;101547.06;;;-1.43
23992;BMP280;12205;50.600;4.608;2023-01-29T03:51:23;101544.66;;;-1.45
23992;BMP280;12205;50.600;4.608;2023-01-29T03:54:04;101544.91;;;-1.46
23992;BMP280;12205;50.600;4.608;2023-01-29T03:56:51;101546.47;;;-1.45
23992;BMP280;12205;50.600;4.608;2023-01-29T03:59:35;101541.22;;;-1.45
23992;BMP280;12205;50.600;4.608;2023-01-29T04:02:26;101530.97;;;-1.47
23992;BMP280;12205;50.600;4.608;2023-01-29T04:05:06;101522.31;;;-1.47
23992;BMP280;12205;50.600;4.608;2023-01-29T04:07:51;101529.63;;;-1.49
23992;BMP280;12205;50.600;4.608;2023-01-29T04:10:25;101538.53;;;-1.50
23992;BMP280;12205;50.600;4.608;2023-01-29T04:12:59;101535.81;;;-1.56
23992;BMP280;12205;50.600;4.608;2023-01-29T04:15:35;101527.84;;;-1.61
23992;BMP280;12205;50.600;4.608;2023-01-29T04:18:04;101530.56;;;-1.56
23992;BMP280;12205;50.600;4.608;2023-01-29T04:20:56;101526.00;;;-1.60
23992;BMP280;12205;50.600;4.608;2023-01-29T04:23:26;101524.66;;;-1.63
23992;BMP280;12205;50.600;4.608;2023-01-29T04:26:30;101523.06;;;-1.64
23992;BMP280;12205;50.600;4.608;2023-01-29T04:29:20;101516.22;;;-1.65
23992;BMP280;12205;50.600;4.608;2023-01-29T04:32:02;101510.44;;;-1.67
23992;BMP280;12205;50.600;4.608;2023-01-29T04:34:45;101507.81;;;-1.67
23992;BMP280;12205;50.600;4.608;2023-01-29T04:37:30;101494.22;;;-1.64
23992;BMP280;12205;50.600;4.608;2023-01-29T04:40:14;101479.53;;;-1.65
23992;BMP280;12205;50.600;4.608;2023-01-29T04:42:51;101480.31;;;-1.64
23992;BMP280;12205;50.600;4.608;2023-01-29T04:45:32;101479.88;;;-1.61
23992;BMP280;12205;50.600;4.608;2023-01-29T04:48:14;101466.19;;;-1.63
23992;BMP280;12205;50.600;4.608;2023-01-29T04:50:54;101470.16;;;-1.61
23992;BMP280;12205;50.600;4.608;2023-01-29T04:53:34;101466.53;;;-1.60
23992;BMP280;12205;50.600;4.608;2023-01-29T04:56:13;101446.56;;;-1.61
23992;BMP280;12205;50.600;4.608;2023-01-29T04:58:50;101441.09;;;-1.59
23992;BMP280;12205;50.600;4.608;2023-01-29T05:01:21;101436.66;;;-1.59
23992;BMP280;12205;50.600;4.608;2023-01-29T05:03:53;101447.16;;;-1.59
23992;BMP280;12205;50.600;4.608;2023-01-29T05:06:22;101445.56;;;-1.60
23992;BMP280;12205;50.600;4.608;2023-01-29T05:08:53;101452.38;;;-1.59
23992;BMP280;12205;50.600;4.608;2023-01-29T05:11:23;101449.53;;;-1.57
23992;BMP280;12205;50.600;4.608;2023-01-29T05:13:51;101450.31;;;-1.57
23992;BMP280;12205;50.600;4.608;2023-01-29T05:16:25;101448.25;;;-1.55
23992;BMP280;12205;50.600;4.608;2023-01-29T05:18:53;101446.19;;;-1.53
23992;BMP280;12205;50.600;4.608;2023-01-29T05:21:22;101437.28;;;-1.51
23992;BMP280;12205;50.600;4.608;2023-01-29T05:24:13;101432.53;;;-1.55
23992;BMP280;12205;50.600;4.608;2023-01-29T05:26:41;101437.28;;;-1.51
23992;BMP280;12205;50.600;4.608;2023-01-29T05:29:26;101443.56;;;-1.53
23992;BMP280;12205;50.600;4.608;2023-01-29T05:31:54;101450.66;;;-1.53
23992;BMP280;12205;50.600;4.608;2023-01-29T05:34:21;101452.00;;;-1.50
23992;BMP280;12205;50.600;4.608;2023-01-29T05:36:48;101454.63;;;-1.50
23992;BMP280;12205;50.600;4.608;2023-01-29T05:39:17;101453.34;;;-1.48
23992;BMP280;12205;50.600;4.608;2023-01-29T05:41:44;101448.34;;;-1.49
23992;BMP280;12205;50.600;4.608;2023-01-29T05:44:12;101452.56;;;-1.48
23992;BMP280;12205;50.600;4.608;2023-01-29T05:46:39;101448.09;;;-1.48
23992;BMP280;12205;50.600;4.608;2023-01-29T05:49:06;101450.94;;;-1.49
23992;BMP280;12205;50.600;4.608;2023-01-29T05:51:33;101458.38;;;-1.46
23992;BMP280;12205;50.600;4.608;2023-01-29T05:54:01;101455.75;;;-1.46
23992;BMP280;12205;50.600;4.608;2023-01-29T05:56:29;101446.28;;;-1.47
23992;BMP280;12205;50.600;4.608;2023-01-29T05:58:59;101434.28;;;-1.43
23992;BMP280;12205;50.600;4.608;2023-01-29T06:01:29;101421.72;;;-1.41
23992;BMP280;12205;50.600;4.608;2023-01-29T06:03:56;101416.47;;;-1.41
23992;BMP280;12205;50.600;4.608;2023-01-29T06:06:23;101406.81;;;-1.41
23992;BMP280;12205;50.600;4.608;2023-01-29T06:08:50;101400.75;;;-1.41
23992;BMP280;12205;50.600;4.608;2023-01-29T06:11:18;101391.22;;;-1.47
23992;BMP280;12205;50.600;4.608;2023-01-29T06:13:46;101392.56;;;-1.45
23992;BMP280;12205;50.600;4.608;2023-01-29T06:16:15;101389.13;;;-1.45
23992;BMP280;12205;50.600;4.608;2023-01-29T06:18:42;101386.53;;;-1.45
23992;BMP280;12205;50.600;4.608;2023-01-29T06:21:12;101379.22;;;-1.43
23992;BMP280;12205;50.600;4.608;2023-01-29T06:23:39;101386.59;;;-1.40
23992;BMP280;12205;50.600;4.608;2023-01-29T06:26:11;101396.63;;;-1.37
23992;BMP280;12205;50.600;4.608;2023-01-29T06:28:38;101389.34;;;-1.35
23992;BMP280;12205;50.600;4.608;2023-01-29T06:31:07;101394.09;;;-1.32
23992;BMP280;12205;50.600;4.608;2023-01-29T06:33:36;101399.69;;;-1.28
23992;BMP280;12205;50.600;4.608;2023-01-29T06:36:05;101408.34;;;-1.28
23992;BMP280;12205;50.600;4.608;2023-01-29T06:38:32;101412.06;;;-1.24
23992;BMP280;12205;50.600;4.608;2023-01-29T06:41:07;101423.03;;;-1.27
23992;BMP280;12205;50.600;4.608;2023-01-29T06:43:34;101426.69;;;-1.28
23992;BMP280;12205;50.600;4.608;2023-01-29T06:46:01;101427.81;;;-1.24
23992;BMP280;12205;50.600;4.608;2023-01-29T06:48:30;101429.41;;;-1.23
23992;BMP280;12205;50.600;4.608;2023-01-29T06:51:02;101418.91;;;-1.23
23992;BMP280;12205;50.600;4.608;2023-01-29T06:53:30;101424.69;;;-1.21
23992;BMP280;12205;50.600;4.608;2023-01-29T06:55:57;101425.81;;;-1.16
23992;BMP280;12205;50.600;4.608;2023-01-29T06:58:25;101424.78;;;-1.15
23992;BMP280;12205;50.600;4.608;2023-01-29T07:00:52;101421.91;;;-1.14
23992;BMP280;12205;50.600;4.608;2023-01-29T07:03:19;101417.78;;;-1.10
23992;BMP280;12205;50.600;4.608;2023-01-29T07:05:51;101434.09;;;-1.08
23992;BMP280;12205;50.600;4.608;2023-01-29T07:08:19;101429.16;;;-1.04
23992;BMP280;12205;50.600;4.608;2023-01-29T07:10:47;101422.38;;;-1.00
23992;BMP280;12205;50.600;4.608;2023-01-29T07:13:15;101427.16;;;-0.97
23992;BMP280;12205;50.600;4.608;2023-01-29T07:15:42;101441.13;;;-0.91
23992;BMP280;12205;50.600;4.608;2023-01-29T07:18:10;101438.59;;;-0.86
23992;BMP280;12205;50.600;4.608;2023-01-29T07:20:39;101437.88;;;-0.81
23992;BMP280;12205;50.600;4.608;2023-01-29T07:23:09;101441.13;;;-0.74
23992;BMP280;12205;50.600;4.608;2023-01-29T07:25:38;101433.34;;;-0.69
23992;BMP280;12205;50.600;4.608;2023-01-29T07:28:05;101437.59;;;-0.63
23992;BMP280;12205;50.600;4.608;2023-01-29T07:30:33;101435.06;;;-0.58
23992;BMP280;12205;50.600;4.608;2023-01-29T07:33:01;101431.19;;;-0.50
23992;BMP280;12205;50.600;4.608;2023-01-29T07:35:29;101406.59;;;-0.44
23992;BMP280;12205;50.600;4.608;2023-01-29T07:37:56;101390.09;;;-0.39
23992;BMP280;12205;50.600;4.608;2023-01-29T07:40:24;101393.81;;;-0.35
23992;BMP280;12205;50.600;4.608;2023-01-29T07:42:57;101402.81;;;-0.31
23992;BMP280;12205;50.600;4.608;2023-01-29T07:45:26;101407.13;;;-0.25
23992;BMP280;12205;50.600;4.608;2023-01-29T07:47:55;101412.16;;;-0.18
23992;BMP280;12205;50.600;4.608;2023-01-29T07:50:23;101415.66;;;-0.12
23992;BMP280;12205;50.600;4.608;2023-01-29T07:52:52;101416.75;;;-0.08
23992;BMP280;12205;50.600;4.608;2023-01-29T07:55:20;101419.97;;;-0.01
23992;BMP280;12205;50.600;4.608;2023-01-29T07:57:54;101427.88;;;-0.01
23992;BMP280;12205;50.600;4.608;2023-01-29T08:00:22;101433.16;;;0.04
23992;BMP280;12205;50.600;4.608;2023-01-29T08:02:50;101430.59;;;0.09
23992;BMP280;12205;50.600;4.608;2023-01-29T08:05:17;101430.16;;;0.17
23992;BMP280;12205;50.600;4.608;2023-01-29T08:07:45;101427.56;;;0.23
23992;BMP280;12205;50.600;4.608;2023-01-29T08:10:12;101431.25;;;0.22
23992;BMP280;12205;50.600;4.608;2023-01-29T08:12:39;101435.41;;;0.17
23992;BMP280;12205;50.600;4.608;2023-01-29T08:15:09;101427.50;;;0.17
23992;BMP280;12205;50.600;4.608;2023-01-29T08:17:36;101424.38;;;0.21
23992;BMP280;12205;50.600;4.608;2023-01-29T08:20:05;101417.63;;;0.30
23992;BMP280;12205;50.600;4.608;2023-01-29T08:22:33;101421.38;;;0.39
23992;BMP280;12205;50.600;4.608;2023-01-29T08:25:00;101419.59;;;0.45
23992;BMP280;12205;50.600;4.608;2023-01-29T08:27:28;101423.81;;;0.46
23992;BMP280;12205;50.600;4.608;2023-01-29T08:29:55;101434.47;;;0.34
23992;BMP280;12205;50.600;4.608;2023-01-29T08:32:25;101444.44;;;0.27
23992;BMP280;12205;50.600;4.608;2023-01-29T08:34:52;101446.59;;;0.35
23992;BMP280;12205;50.600;4.608;2023-01-29T08:37:20;101421.63;;;0.32
23992;BMP280;12205;50.600;4.608;2023-01-29T08:39:47;101431.19;;;0.49
23992;BMP280;12205;50.600;4.608;2023-01-29T08:42:14;101427.34;;;0.57
23992;BMP280;12205;50.600;4.608;2023-01-29T08:44:41;101430.53;;;0.64
23992;BMP280;12205;50.600;4.608;2023-01-29T08:47:08;101441.59;;;0.66
23992;BMP280;12205;50.600;4.608;2023-01-29T08:49:37;101438.50;;;0.74
23992;BMP280;12205;50.600;4.608;2023-01-29T08:52:04;101439.06;;;0.81
23992;BMP280;12205;50.600;4.608;2023-01-29T08:54:31;101450.22;;;0.89
23992;BMP280;12205;50.600;4.608;2023-01-29T08:56:58;101437.06;;;0.94
23992;BMP280;12205;50.600;4.608;2023-01-29T08:59:25;101443.13;;;0.94
23992;BMP280;12205;50.600;4.608;2023-01-29T09:01:53;101439.69;;;0.94
23992;BMP280;12205;50.600;4.608;2023-01-29T09:04:20;101439.13;;;0.87
23992;BMP280;12205;50.600;4.608;2023-01-29T09:06:49;101432.81;;;0.88
23992;BMP280;12205;50.600;4.608;2023-01-29T09:09:16;101432.31;;;0.91
23992;BMP280;12205;50.600;4.608;2023-01-29T09:11:44;101432.34;;;0.96
23992;BMP280;12205;50.600;4.608;2023-01-29T09:14:11;101421.25;;;0.94
23992;BMP280;12205;50.600;4.608;2023-01-29T09:16:39;101421.81;;;0.96
23992;BMP280;12205;50.600;4.608;2023-01-29T09:19:06;101413.34;;;0.89
23992;BMP280;12205;50.600;4.608;2023-01-29T09:21:34;101398.84;;;0.86
23992;BMP280;12205;50.600;4.608;2023-01-29T09:24:03;101394.38;;;0.87
23992;BMP280;12205;50.600;4.608;2023-01-29T09:26:30;101384.41;;;0.89
23992;BMP280;12205;50.600;4.608;2023-01-29T09:28:58;101381.25;;;0.92
23992;BMP280;12205;50.600;4.608;2023-01-29T09:31:25;101389.69;;;0.94
23992;BMP280;12205;50.600;4.608;2023-01-29T09:33:52;101381.03;;;0.98
23992;BMP280;12205;50.600;4.608;2023-01-29T09:36:19;101370.28;;;1.05
23992;BMP280;12205;50.600;4.608;2023-01-29T09:38:46;101367.72;;;1.21
23992;BMP280;12205;50.600;4.608;2023-01-29T09:41:32;101378.28;;;1.31
23992;BMP280;12205;50.600;4.608;2023-01-29T09:44:09;101398.06;;;1.39
23992;BMP280;12205;50.600;4.608;2023-01-29T09:46:41;101402.06;;;1.51
23992;BMP280;12205;50.600;4.608;2023-01-29T09:49:20;101396.28;;;1.60
23992;BMP280;12205;50.600;4.608;2023-01-29T09:51:52;101401.63;;;1.70
23992;BMP280;12205;50.600;4.608;2023-01-29T09:54:27;101401.59;;;1.75
23992;BMP280;12205;50.600;4.608;2023-01-29T09:56:58;101405.31;;;1.74
23992;BMP280;12205;50.600;4.608;2023-01-29T09:59:30;101407.44;;;1.77
23992;BMP280;12205;50.600;4.608;2023-01-29T10:02:08;101401.63;;;1.80
23992;BMP280;12205;50.600;4.608;2023-01-29T10:05:02;101400.34;;;1.88
23992;BMP280;12205;50.600;4.608;2023-01-29T10:08:18;101399.00;;;1.91
23992;BMP280;12205;50.600;4.608;2023-01-29T10:10:50;101397.72;;;1.88
23992;BMP280;12205;50.600;4.608;2023-01-29T10:13:28;101406.41;;;1.94
23992;BMP280;12205;50.600;4.608;2023-01-29T10:16:17;101401.13;;;1.88
23992;BMP280;12205;50.600;4.608;2023-01-29T10:22:20;101403.75;;;1.99
23992;BMP280;12205;50.600;4.608;2023-01-29T10:24:57;101406.94;;;2.11
23992;BMP280;12205;50.600;4.608;2023-01-29T10:27:32;101403.25;;;2.12
23992;BMP280;12205;50.600;4.608;2023-01-29T10:30:05;101409.06;;;2.09
23992;BMP280;12205;50.600;4.608;2023-01-29T10:32:36;101402.72;;;1.95
23992;BMP280;12205;50.600;4.608;2023-01-29T10:35:21;101390.56;;;1.94
23992;BMP280;12205;50.600;4.608;2023-01-29T10:37:52;101394.25;;;2.03
23992;BMP280;12205;50.600;4.608;2023-01-29T10:40:23;101375.84;;;2.18
23992;BMP280;12205;50.600;4.608;2023-01-29T10:43:02;101384.00;;;2.27
23992;BMP280;12205;50.600;4.608;2023-01-29T10:45:42;101387.97;;;2.35
23992;BMP280;12205;50.600;4.608;2023-01-29T10:48:39;101387.44;;;2.43
23992;BMP280;12205;50.600;4.608;2023-01-29T10:51:25;101393.50;;;2.49
23992;BMP280;12205;50.600;4.608;2023-01-29T10:54:14;101386.88;;;2.56
23992;BMP280;12205;50.600;4.608;2023-01-29T10:57:00;101385.03;;;2.52
23992;BMP280;12205;50.600;4.608;2023-01-29T10:59:51;101375.03;;;2.49
23992;BMP280;12205;50.600;4.608;2023-01-29T11:02:22;101385.31;;;2.55
23992;BMP280;12205;50.600;4.608;2023-01-29T11:04:49;101381.59;;;2.56
23992;BMP280;12205;50.600;4.608;2023-01-29T11:07:20;101369.47;;;2.50
23992;BMP280;12205;50.600;4.608;2023-01-29T11:09:56;101364.47;;;2.49
23992;BMP280;12205;50.600;4.608;2023-01-29T11:12:29;101370.78;;;2.43
23992;BMP280;12205;50.600;4.608;2023-01-29T11:15:04;101359.44;;;2.52
23992;BMP280;12205;50.600;4.608;2023-01-29T11:17:34;101356.03;;;2.57
23992;BMP280;12205;50.600;4.608;2023-01-29T11:20:01;101352.31;;;2.58
23992;BMP280;12205;50.600;4.608;2023-01-29T11:22:29;101340.41;;;2.71
23992;BMP280;12205;50.600;4.608;2023-01-29T11:25:09;101339.84;;;2.69
23992;BMP280;12205;50.600;4.608;2023-01-29T11:27:45;101340.41;;;2.71
23992;BMP280;12205;50.600;4.608;2023-01-29T11:30:23;101323.25;;;2.73
23992;BMP280;12205;50.600;4.608;2023-01-29T11:33:04;101318.75;;;2.69
23992;BMP280;12205;50.600;4.608;2023-01-29T11:35:33;101307.97;;;2.65
23992;BMP280;12205;50.600;4.608;2023-01-29T11:38:18;101300.53;;;2.72
23992;BMP280;12205;50.600;4.608;2023-01-29T11:40:46;101308.19;;;2.74
23992;BMP280;12205;50.600;4.608;2023-01-29T11:43:27;101301.28;;;2.83
23992;BMP280;12205;50.600;4.608;2023-01-29T11:45:56;101310.78;;;2.84
23992;BMP280;12205;50.600;4.608;2023-01-29T11:48:38;101295.41;;;2.97
23992;BMP280;12205;50.600;4.608;2023-01-29T11:51:11;101296.16;;;3.02
23992;BMP280;12205;50.600;4.608;2023-01-29T11:53:43;101294.31;;;3.08
23992;BMP280;12205;50.600;4.608;2023-01-29T11:56:33;101308.28;;;3.08
23992;BMP280;12205;50.600;4.608;2023-01-29T11:59:02;101303.28;;;3.12
23992;BMP280;12205;50.600;4.608;2023-01-29T12:01:34;101313.28;;;3.15
23992;BMP280;12205;50.600;4.608;2023-01-29T12:04:16;101302.44;;;3.22
23992;BMP280;12205;50.600;4.608;2023-01-29T12:06:47;101306.31;;;3.35
23992;BMP280;12205;50.600;4.608;2023-01-29T12:09:20;101294.38;;;3.42
23992;BMP280;12205;50.600;4.608;2023-01-29T12:11:48;101298.06;;;3.47
23992;BMP280;12205;50.600;4.608;2023-01-29T12:14:30;101297.25;;;3.46
23992;BMP280;12205;50.600;4.608;2023-01-29T12:17:05;101295.59;;;3.55
23992;BMP280;12205;50.600;4.608;2023-01-29T12:19:40;101283.91;;;3.61
23992;BMP280;12205;50.600;4.608;2023-01-29T12:22:17;101286.25;;;3.68
23992;BMP280;12205;50.600;4.608;2023-01-29T12:24:52;101290.22;;;3.66
23992;BMP280;12205;50.600;4.608;2023-01-29T12:27:27;101289.47;;;3.60
23992;BMP280;12205;50.600;4.608;2023-01-29T12:30:06;101282.88;;;3.57
23992;BMP280;12205;50.600;4.608;2023-01-29T12:32:48;101276.03;;;3.56
23992;BMP280;12205;50.600;4.608;2023-01-29T12:35:23;101276.22;;;3.65
23992;BMP280;12205;50.600;4.608;2023-01-29T12:37:59;101263.75;;;3.71
23992;BMP280;12205;50.600;4.608;2023-01-29T12:40:33;101260.47;;;3.84
23992;BMP280;12205;50.600;4.608;2023-01-29T12:43:06;101260.38;;;3.94
23992;BMP280;12205;50.600;4.608;2023-01-29T12:45:37;101263.00;;;3.94
23992;BMP280;12205;50.600;4.608;2023-01-29T12:48:08;101259.28;;;4.01
23992;BMP280;12205;50.600;4.608;2023-01-29T12:50:40;101254.97;;;4.05
23992;BMP280;12205;50.600;4.608;2023-01-29T12:53:25;101254.38;;;4.13
23992;BMP280;12205;50.600;4.608;2023-01-29T12:56:00;101250.69;;;4.09
23992;BMP280;12205;50.600;4.608;2023-01-29T12:58:34;101239.00;;;4.15
23992;BMP280;12205;50.600;4.608;2023-01-29T13:01:11;101246.47;;;4.08
23992;BMP280;12205;50.600;4.608;2023-01-29T13:03:49;101243.53;;;4.09
23992;BMP280;12205;50.600;4.608;2023-01-29T13:06:25;101241.63;;;4.15
23992;BMP280;12205;50.600;4.608;2023-01-29T13:08:58;101241.59;;;4.20
23992;BMP280;12205;50.600;4.608;2023-01-29T13:11:34;101246.28;;;4.23
23992;BMP280;12205;50.600;4.608;2023-01-29T13:14:13;101249.91;;;4.32
23992;BMP280;12205;50.600;4.608;2023-01-29T13:16:47;101246.13;;;4.39
23992;BMP280;12205;50.600;4.608;2023-01-29T13:19:25;101244.28;;;4.39
23992;BMP280;12205;50.600;4.608;2023-01-29T13:22:00;101235.47;;;4.44
23992;BMP280;12205;50.600;4.608;2023-01-29T13:24:36;101235.47;;;4.44
23992;BMP280;12205;50.600;4.608;2023-01-29T13:27:05;101232.78;;;4.49
23992;BMP280;12205;50.600;4.608;2023-01-29T13:29:33;101225.97;;;4.43
23992;BMP280;12205;50.600;4.608;2023-01-29T13:32:03;101226.25;;;4.41
23992;BMP280;12205;50.600;4.608;2023-01-29T13:34:33;101220.81;;;4.32
23992;BMP280;12205;50.600;4.608;2023-01-29T13:37:11;101217.25;;;4.18
23992;BMP280;12205;50.600;4.608;2023-01-29T13:39:49;101206.22;;;4.11
23992;BMP280;12205;50.600;4.608;2023-01-29T13:42:20;101207.81;;;4.12
23992;BMP280;12205;50.600;4.608;2023-01-29T13:44:49;101207.25;;;4.15
23992;BMP280;12205;50.600;4.608;2023-01-29T13:47:23;101197.97;;;4.18
23992;BMP280;12205;50.600;4.608;2023-01-29T13:49:56;101193.50;;;4.13
23992;BMP280;12205;50.600;4.608;2023-01-29T13:52:35;101184.56;;;4.09
23992;BMP280;12205;50.600;4.608;2023-01-29T13:55:18;101176.06;;;4.12
23992;BMP280;12205;50.600;4.608;2023-01-29T13:57:51;101183.72;;;4.13
23992;BMP280;12205;50.600;4.608;2023-01-29T14:00:49;101177.84;;;4.17
23992;BMP280;12205;50.600;4.608;2023-01-29T14:03:51;101181.78;;;4.19
23992;BMP280;12205;50.600;4.608;2023-01-29T14:06:48;101171.72;;;4.21
23992;BMP280;12205;50.600;4.608;2023-01-29T14:10:05;101181.66;;;4.29
23992;BMP280;12205;50.600;4.608;2023-01-29T14:12:51;101173.22;;;4.27
23992;BMP280;12205;50.600;4.608;2023-01-29T14:15:40;101167.72;;;4.24
23992;BMP280;12205;50.600;4.608;2023-01-29T14:41:38;101156.16;;;3.95
23992;BMP280;12205;50.600;4.608;2023-01-29T14:44:45;101143.84;;;3.80
23992;BMP280;12205;50.600;4.608;2023-01-29T14:47:18;101141.72;;;3.83
23992;BMP280;12205;50.600;4.608;2023-01-29T14:49:53;101150.16;;;3.85
23992;BMP280;12205;50.600;4.608;2023-01-29T14:52:25;101138.81;;;3.84
23992;BMP280;12205;50.600;4.608;2023-01-29T14:55:02;101141.94;;;3.86
23992;BMP280;12205;50.600;4.608;2023-01-29T14:57:32;101143.53;;;3.87
23992;BMP280;12205;50.600;4.608;2023-01-29T15:00:03;101149.94;;;3.81
23992;BMP280;12205;50.600;4.608;2023-01-29T15:02:37;101154.44;;;3.80
23992;BMP280;12205;50.600;4.608;2023-01-29T15:05:11;101147.94;;;3.73
23992;BMP280;12205;50.600;4.608;2023-01-29T15:07:52;101141.50;;;3.79